Time;durP1;ratioP1;P1;durP2;ratioP2;P2;SDS_P1;SDS_P2;PMS_P1;PMS_P2;Temp;Humidity;BMP_temperature;BMP_pressure;BME280_temperature;BME280_humidity;BME280_pressure;Samples;Min_cycle;Max_cycle;Signal;HPM_P1;HPM_P2
2021/04/25 07:00:17;;;;;;;10.77;7.43;;;;;;;16.68;38.43;99316.88;6061418;23;20171;-70
2021/04/25 07:02:43;;;;;;;14.68;7.25;;;;;;;16.92;38.06;99320.44;4953447;28;20122;-70
2021/04/25 07:05:09;;;;;;;13.30;7.63;;;;;;;17.57;36.35;99323.34;4953884;28;20166;-67
2021/04/25 07:07:34;;;;;;;12.80;7.78;;;;;;;18.77;34.01;99319.47;4954196;28;20038;-67
2021/04/25 07:10:00;;;;;;;12.27;7.20;;;;;;;15.99;39.56;99333.94;4953877;28;20038;-68
2021/04/25 07:12:26;;;;;;;14.40;7.10;;;;;;;17.29;36.56;99320.88;4995445;23;20027;-71
2021/04/25 07:14:53;;;;;;;11.98;7.10;;;;;;;19.93;32.35;99311.59;4953074;28;20050;-76
2021/04/25 07:17:18;;;;;;;12.85;7.22;;;;;;;19.87;32.06;99317.13;4954026;28;20027;-78
2021/04/25 07:19:44;;;;;;;15.55;7.47;;;;;;;18.80;33.30;99327.19;4953888;28;20615;-76
2021/04/25 07:22:10;;;;;;;12.93;6.70;;;;;;;21.91;28.81;99320.75;4954084;28;20400;-78
2021/04/25 07:24:35;;;;;;;15.40;7.97;;;;;;;21.04;30.18;99323.63;4952652;28;20142;-74
2021/04/25 07:27:01;;;;;;;10.40;7.25;;;;;;;19.41;31.97;99324.50;4954051;28;20051;-77
2021/04/25 07:29:28;;;;;;;19.20;8.20;;;;;;;17.18;35.11;99332.59;4952674;29;20038;-74
2021/04/25 07:31:53;;;;;;;16.13;8.63;;;;;;;16.53;37.86;99333.06;4953733;28;20030;-73
2021/04/25 07:34:19;;;;;;;16.27;7.85;;;;;;;17.06;35.99;99330.41;4952540;28;20027;-73
2021/04/25 07:36:45;;;;;;;12.88;8.15;;;;;;;18.67;34.23;99311.09;4953938;28;20035;-72
2021/04/25 07:39:10;;;;;;;12.65;7.88;;;;;;;21.41;29.43;99306.72;4956597;28;20031;-71
2021/04/25 07:41:35;;;;;;;15.10;8.30;;;;;;;20.45;31.33;99320.44;4957717;28;20038;-75
2021/04/25 07:44:01;;;;;;;16.90;8.45;;;;;;;18.72;32.48;99320.50;4956390;28;20049;-73
2021/04/25 07:46:27;;;;;;;15.75;8.40;;;;;;;18.73;33.95;99316.94;4957673;28;20550;-75
2021/04/25 07:48:52;;;;;;;17.35;8.00;;;;;;;21.83;28.72;99309.75;4956218;28;20396;-74
2021/04/25 07:51:18;;;;;;;11.80;7.78;;;;;;;23.19;26.56;99302.69;4957424;28;20034;-74
2021/04/25 07:53:43;;;;;;;12.82;8.00;;;;;;;22.73;27.07;99308.09;4957788;28;20026;-73
2021/04/25 07:56:09;;;;;;;12.43;7.80;;;;;;;22.90;26.92;99303.59;4957419;28;20102;-74
2021/04/25 07:58:35;;;;;;;14.40;8.20;;;;;;;21.69;28.62;99306.09;4957489;28;20037;-74
2021/04/25 08:01:00;;;;;;;12.57;8.02;;;;;;;22.89;27.51;99301.91;4955887;29;20031;-75
2021/04/25 08:03:26;;;;;;;13.60;8.10;;;;;;;23.56;26.23;99295.13;4957123;28;20051;-75
2021/04/25 08:08:23;;;;;;;13.20;8.35;;;;;;;21.78;28.01;99299.44;5089609;27;20370;-76
2021/04/25 08:10:48;;;;;;;13.98;8.75;;;;;;;22.03;27.52;99304.19;5089340;28;20453;-77
2021/04/25 08:13:14;;;;;;;14.88;7.88;;;;;;;23.14;26.00;99299.47;5087986;28;20070;-74
2021/04/25 08:15:39;;;;;;;13.40;7.95;;;;;;;24.02;25.99;99302.78;5088053;28;20052;-73
2021/04/25 08:18:04;;;;;;;12.38;8.55;;;;;;;24.25;24.89;99304.78;5087696;28;20024;-73
2021/04/25 08:20:30;;;;;;;19.08;9.88;;;;;;;22.79;26.35;99302.44;5089181;28;20082;-74
2021/04/25 08:22:55;;;;;;;17.63;8.13;;;;;;;22.42;26.89;99300.25;5088013;28;20073;-75
2021/04/25 08:25:21;;;;;;;16.98;8.55;;;;;;;22.25;27.60;99304.72;5086867;28;20081;-75
2021/04/25 08:27:46;;;;;;;14.48;9.02;;;;;;;21.88;27.72;99305.06;5074136;28;20445;-75
2021/04/25 08:30:12;;;;;;;19.92;9.63;;;;;;;22.00;27.62;99302.59;5080201;28;20481;-75
2021/04/25 08:32:38;;;;;;;15.68;8.50;;;;;;;21.72;28.08;99303.28;5056744;28;20034;-75
2021/04/25 08:35:06;;;;;;;17.92;9.52;;;;;;;18.51;32.29;99316.09;5075215;28;20017;-75
2021/04/25 08:37:31;;;;;;;13.18;8.18;;;;;;;20.68;30.86;99306.13;5080250;28;20028;-75
2021/04/25 08:39:57;;;;;;;17.20;9.02;;;;;;;21.22;28.97;99296.28;5080072;28;20537;-75
2021/04/25 08:42:22;;;;;;;14.93;8.38;;;;;;;22.95;26.98;99293.59;5079246;28;20033;-75
2021/04/25 08:44:48;;;;;;;16.80;9.07;;;;;;;23.30;26.50;99300.22;5080201;28;20020;-74
2021/04/25 08:47:15;;;;;;;18.17;9.20;;;;;;;22.13;27.93;99297.50;5079878;28;20110;-74
2021/04/25 08:49:42;;;;;;;14.90;8.05;;;;;;;23.19;26.37;99297.41;5079993;28;20038;-75
2021/04/25 08:52:08;;;;;;;18.17;8.63;;;;;;;21.70;28.17;99307.78;5079828;28;20488;-74
2021/04/25 08:54:34;;;;;;;13.60;9.68;;;;;;;21.79;28.08;99302.00;5079514;28;20469;-73
2021/04/25 08:56:59;;;;;;;17.23;9.38;;;;;;;23.19;26.73;99302.69;5079728;28;20032;-75
2021/04/25 08:59:25;;;;;;;13.23;8.43;;;;;;;23.85;25.95;99286.22;5079722;28;20033;-75
2021/04/25 09:01:50;;;;;;;13.88;9.50;;;;;;;24.69;24.48;99290.41;5073244;28;20090;-74
2021/04/25 09:04:15;;;;;;;16.45;8.75;;;;;;;23.36;26.41;99292.88;5078523;28;20185;-76
2021/04/25 09:07:04;;;;;;;11.82;8.45;;;;;;;22.12;28.29;99301.06;5079285;28;20491;-77
2021/04/25 09:09:55;;;;;;;12.70;7.43;;;;;;;23.58;25.55;99294.06;5073286;28;20730;-75
2021/04/25 09:12:44;;;;;;;13.13;7.88;;;;;;;22.88;25.12;99286.97;5079133;28;20165;-73
2021/04/25 09:15:09;;;;;;;13.57;8.35;;;;;;;24.41;24.00;99298.50;5079396;28;20024;-74
2021/04/25 09:17:53;;;;;;;12.80;8.18;;;;;;;24.01;24.79;99286.06;5078329;28;20098;-74
2021/04/25 09:20:30;;;;;;;10.27;7.75;;;;;;;23.11;24.70;99283.78;5059374;28;20029;-74
2021/04/25 09:22:55;;;;;;;11.70;7.50;;;;;;;24.88;23.69;99282.88;5063575;28;20042;-74
2021/04/25 09:25:21;;;;;;;12.02;7.45;;;;;;;25.62;22.11;99277.72;5063260;28;20029;-74
2021/04/25 09:27:48;;;;;;;10.65;7.20;;;;;;;23.81;24.46;99279.41;5065330;28;21357;-74
2021/04/25 09:30:20;;;;;;;7.80;6.25;;;;;;;23.70;24.90;99271.31;5065500;28;20500;-74
2021/04/25 09:32:45;;;;;;;11.00;7.00;;;;;;;24.61;23.91;99282.09;5046811;28;20040;-74
2021/04/25 09:35:12;;;;;;;7.85;6.25;;;;;;;24.93;22.43;99269.31;5061480;28;20037;-74
2021/04/25 09:37:49;;;;;;;10.57;6.30;;;;;;;21.78;24.84;99281.84;5064662;28;20501;-74
2021/04/25 09:40:18;;;;;;;10.38;6.38;;;;;;;20.32;28.38;99286.91;5060991;28;20036;-74
2021/04/25 09:43:02;;;;;;;7.97;5.75;;;;;;;23.12;24.25;99276.75;5065142;28;20111;-74
2021/04/25 09:45:50;;;;;;;8.95;5.00;;;;;;;24.69;22.02;99271.84;5060486;28;20028;-73
2021/04/25 09:48:26;;;;;;;8.17;5.60;;;;;;;21.11;25.92;99280.19;5054983;28;20056;-73
2021/04/25 09:51:10;;;;;;;7.95;5.97;;;;;;;20.56;26.82;99280.44;5064548;28;20059;-74
2021/04/25 09:53:37;;;;;;;7.30;5.93;;;;;;;20.81;27.80;99280.03;5062027;28;20512;-74
2021/04/25 09:56:04;;;;;;;10.98;5.82;;;;;;;21.40;26.29;99272.53;5065143;28;20052;-73
2021/04/25 09:58:29;;;;;;;10.05;5.30;;;;;;;21.33;26.16;99271.19;5062973;28;20029;-73
2021/04/25 10:00:56;;;;;;;10.60;5.63;;;;;;;20.55;27.47;99273.47;5065130;28;20412;-74
2021/04/25 10:03:23;;;;;;;8.65;5.75;;;;;;;18.57;29.29;99279.13;5047017;28;20504;-74
2021/04/25 10:06:05;;;;;;;8.60;5.93;;;;;;;17.34;30.58;99277.03;5059989;28;20031;-73
2021/04/25 10:08:32;;;;;;;11.40;5.28;;;;;;;18.21;28.90;99271.84;5058637;28;20037;-73
2021/04/25 10:11:02;;;;;;;13.02;5.28;;;;;;;19.72;28.53;99256.44;5062069;28;20541;-74
2021/04/25 10:13:28;;;;;;;13.80;5.07;;;;;;;20.90;26.09;99262.91;5064340;28;20027;-69
2021/04/25 10:15:54;;;;;;;7.18;5.20;;;;;;;21.91;24.15;99257.41;5059383;28;20028;-78
2021/04/25 10:18:19;;;;;;;6.97;4.50;;;;;;;22.75;23.78;99250.72;5062933;28;20024;-76
2021/04/25 10:20:49;;;;;;;6.28;4.43;;;;;;;21.04;24.10;99260.38;5064373;28;20476;-77
2021/04/25 10:23:14;;;;;;;7.10;4.65;;;;;;;20.82;23.96;99254.53;5062360;28;20085;-77
2021/04/25 10:25:40;;;;;;;6.47;4.63;;;;;;;22.18;23.96;99245.28;5058815;28;20028;-76
2021/04/25 10:28:11;;;;;;;5.57;4.75;;;;;;;23.47;22.92;99248.09;5059597;28;20024;-78
2021/04/25 10:30:39;;;;;;;6.43;4.32;;;;;;;26.05;19.26;99242.75;5063591;28;20472;-77
2021/04/25 10:33:05;;;;;;;8.77;4.25;;;;;;;24.90;20.80;99247.47;5062874;28;20546;-77
2021/04/25 10:35:35;;;;;;;6.57;4.40;;;;;;;24.02;20.58;99255.13;5062734;28;20081;-76
2021/04/25 10:38:03;;;;;;;11.85;4.53;;;;;;;25.01;21.12;99235.16;5063393;28;20453;-76
2021/04/25 10:40:34;;;;;;;7.38;4.90;;;;;;;21.62;24.78;99246.72;5064352;28;20029;-76
2021/04/25 10:43:10;;;;;;;6.45;4.32;;;;;;;22.99;23.06;99236.97;5063660;28;20028;-76
2021/04/25 10:45:57;;;;;;;11.35;4.72;;;;;;;25.62;20.67;99229.97;5059118;28;20035;-76
2021/04/25 10:48:35;;;;;;;6.75;3.88;;;;;;;25.53;19.70;99231.50;5062173;28;20043;-76
2021/04/25 10:51:09;;;;;;;5.85;4.38;;;;;;;19.06;26.92;99245.50;5064140;28;20036;-76
2021/04/25 10:53:37;;;;;;;7.22;4.63;;;;;;;19.10;27.26;99244.44;5063935;28;20028;-76
2021/04/25 10:56:21;;;;;;;6.40;4.22;;;;;;;19.79;27.37;99246.50;5064200;28;20404;-76
2021/04/25 10:59:07;;;;;;;8.43;4.53;;;;;;;20.84;26.32;99231.59;5057813;28;20295;-75
2021/04/25 11:01:39;;;;;;;8.18;4.30;;;;;;;23.62;22.10;99225.94;5063680;28;20111;-76
2021/04/25 11:04:05;;;;;;;7.78;4.07;;;;;;;21.94;24.33;99230.84;5061931;28;20020;-76
2021/04/25 11:06:31;;;;;;;5.60;3.75;;;;;;;24.14;21.59;99237.59;5063712;28;20032;-75
2021/04/25 11:08:56;;;;;;;9.15;4.65;;;;;;;19.62;25.83;99239.41;5057317;28;20496;-75
2021/04/25 11:11:33;;;;;;;8.10;4.70;;;;;;;20.18;26.72;99233.16;5063388;28;20032;-75
2021/04/25 11:14:00;;;;;;;7.68;4.68;;;;;;;18.98;28.73;99231.84;5063133;28;20024;-75
2021/04/25 11:16:27;;;;;;;10.52;4.45;;;;;;;20.54;25.87;99229.63;5039793;28;20432;-75
2021/04/25 11:18:52;;;;;;;6.60;4.43;;;;;;;20.66;25.58;99234.28;5060429;28;20025;-75
2021/04/25 11:24:02;;;;;;;8.70;4.82;;;;;;;20.29;26.15;99230.00;5060336;28;20039;-75
2021/04/25 11:26:33;;;;;;;7.32;4.38;;;;;;;24.94;20.61;99206.53;5063475;28;20028;-75
2021/04/25 11:29:01;;;;;;;6.00;3.75;;;;;;;25.00;20.83;99206.13;5059949;28;20032;-75
2021/04/25 11:31:54;;;;;;;6.80;3.88;;;;;;;25.08;20.71;99203.78;5063117;28;20028;-75
2021/04/25 11:34:26;;;;;;;7.40;4.25;;;;;;;23.65;22.55;99211.72;5060121;28;20051;-75
2021/04/25 11:37:04;;;;;;;6.57;3.78;;;;;;;25.43;20.53;99208.38;5061253;28;20036;-75
2021/04/25 11:39:33;;;;;;;6.60;3.53;;;;;;;26.13;20.29;99203.22;5058421;28;20024;-75
2021/04/25 11:41:59;;;;;;;6.03;4.00;;;;;;;24.88;20.21;99208.66;5059351;28;20036;-75
2021/04/25 11:44:27;;;;;;;5.88;3.60;;;;;;;23.73;20.54;99212.88;5062777;28;20036;-75
2021/04/25 11:46:53;;;;;;;8.45;4.05;;;;;;;22.05;23.70;99217.88;5063091;28;20039;-75
2021/04/25 11:49:37;;;;;;;10.02;4.30;;;;;;;22.13;22.93;99205.13;5056728;28;20039;-75
2021/04/25 11:52:20;;;;;;;8.90;4.25;;;;;;;21.97;23.84;99199.84;5057880;28;20024;-75
2021/04/25 11:55:03;;;;;;;7.13;4.05;;;;;;;20.09;24.79;99223.09;5059936;28;20034;-75
2021/04/25 11:57:31;;;;;;;5.78;3.83;;;;;;;21.85;22.81;99210.25;5063014;28;20035;-76
2021/04/25 12:00:00;;;;;;;7.05;3.70;;;;;;;22.16;23.95;99212.00;5057665;28;20035;-76
2021/04/25 12:02:31;;;;;;;6.43;3.50;;;;;;;20.88;24.68;99206.78;5062629;28;20024;-75
2021/04/25 12:05:00;;;;;;;10.52;4.10;;;;;;;20.31;26.50;99211.47;5060721;28;20554;-75
2021/04/25 12:07:46;;;;;;;20.42;9.13;;;;;;;18.97;28.31;99224.91;5062777;28;20070;-75
2021/04/25 12:10:14;;;;;;;6.93;3.83;;;;;;;18.20;28.16;99222.94;5062709;28;20037;-75
2021/04/25 12:13:05;;;;;;;11.60;4.05;;;;;;;18.28;28.43;99208.66;5043499;28;20059;-76
2021/04/25 12:15:42;;;;;;;8.38;3.75;;;;;;;18.72;27.18;99204.13;5062827;28;20032;-76
2021/04/25 12:18:08;;;;;;;5.43;3.60;;;;;;;18.34;26.45;99208.41;5056523;28;20123;-76
2021/04/25 12:20:42;;;;;;;3.65;3.33;;;;;;;17.83;26.96;99213.09;5062648;28;20409;-76
2021/04/25 12:23:12;;;;;;;6.50;3.78;;;;;;;17.50;27.62;99209.16;5058546;28;20119;-76
2021/04/25 12:25:37;;;;;;;4.68;3.08;;;;;;;16.55;27.89;99212.69;5061895;28;20020;-76
2021/04/25 12:28:03;;;;;;;4.95;4.00;;;;;;;16.75;28.01;99204.16;5061494;28;20039;-76
2021/04/25 12:30:30;;;;;;;5.78;3.20;;;;;;;18.00;26.78;99201.94;5040412;28;20028;-76
2021/04/25 12:33:05;;;;;;;6.65;3.33;;;;;;;17.18;26.19;99199.03;5062590;28;20028;-76
2021/04/25 12:35:36;;;;;;;7.47;2.95;;;;;;;16.37;26.23;99209.81;5041259;28;20029;-75
2021/04/25 12:38:29;;;;;;;4.22;2.60;;;;;;;17.49;24.70;99200.47;5056451;28;20029;-72
2021/04/25 12:41:12;;;;;;;5.10;3.08;;;;;;;17.66;25.26;99192.78;5061378;28;20112;-73
2021/04/25 12:43:46;;;;;;;4.47;3.15;;;;;;;17.89;26.38;99191.03;5058082;28;20082;-72
2021/04/25 12:46:29;;;;;;;6.65;3.08;;;;;;;18.23;24.54;99191.34;5062418;28;20115;-72
2021/04/25 12:49:05;;;;;;;4.55;3.00;;;;;;;17.57;27.78;99194.94;5058977;28;20040;-72
2021/04/25 12:51:40;;;;;;;4.20;3.13;;;;;;;17.78;26.39;99190.63;5060993;28;20021;-72
2021/04/25 12:54:09;;;;;;;4.65;2.70;;;;;;;17.99;27.71;99189.75;5060779;28;20041;-72
2021/04/25 12:56:41;;;;;;;6.07;3.25;;;;;;;17.57;26.35;99185.31;5062518;28;20032;-72
2021/04/25 12:59:26;;;;;;;6.43;3.92;;;;;;;17.85;27.41;99184.22;5062135;28;20028;-72
2021/04/25 13:02:15;;;;;;;7.50;2.95;;;;;;;18.50;26.43;99173.53;5065395;28;20435;-73
2021/04/25 13:04:51;;;;;;;5.63;3.20;;;;;;;18.20;26.61;99186.22;5063031;28;20028;-72
2021/04/25 13:07:18;;;;;;;5.00;2.85;;;;;;;18.17;26.68;99175.84;5065944;28;20074;-72
2021/04/25 13:09:45;;;;;;;4.85;2.92;;;;;;;17.23;27.20;99179.69;5060676;28;20175;-72
2021/04/25 13:12:22;;;;;;;5.32;3.25;;;;;;;16.61;27.54;99176.69;5065928;28;20125;-72
2021/04/25 13:15:03;;;;;;;3.88;2.58;;;;;;;17.38;27.05;99179.94;5031375;23;20053;-73
2021/04/25 13:17:32;;;;;;;4.18;2.53;;;;;;;16.69;27.42;99174.66;5006330;28;20033;-69
2021/04/25 13:19:59;;;;;;;4.43;2.50;;;;;;;17.08;29.11;99168.88;5006090;28;20108;-68
2021/04/25 13:22:26;;;;;;;6.50;2.90;;;;;;;16.86;26.55;99171.44;5006409;28;20033;-67
2021/04/25 13:24:53;;;;;;;7.57;2.90;;;;;;;16.96;27.33;99164.09;5024444;28;20658;-70
2021/04/25 13:27:19;;;;;;;3.50;2.67;;;;;;;17.61;27.03;99171.16;5025673;28;20030;-69
2021/04/25 13:29:47;;;;;;;5.03;3.10;;;;;;;17.37;26.49;99172.16;5025591;28;20043;-72
2021/04/25 13:32:13;;;;;;;4.03;2.83;;;;;;;17.26;27.22;99158.59;5007286;28;20049;-72
2021/04/25 13:34:39;;;;;;;7.22;2.97;;;;;;;17.10;26.32;99159.19;5024843;28;20039;-71
2021/04/25 13:37:06;;;;;;;4.30;2.45;;;;;;;18.00;26.51;99165.22;5006860;28;20030;-68
2021/04/25 13:39:32;;;;;;;7.22;2.70;;;;;;;16.66;27.34;99168.69;5025799;28;20060;-69
2021/04/25 13:41:57;;;;;;;5.82;2.53;;;;;;;17.26;26.93;99158.59;5006547;28;20413;-69
2021/04/25 13:44:23;;;;;;;5.60;3.00;;;;;;;17.69;26.94;99153.34;5025722;28;20512;-69
2021/04/25 13:46:48;;;;;;;4.95;2.20;;;;;;;18.21;25.31;99145.94;5025686;28;20033;-69
2021/04/25 13:49:14;;;;;;;6.32;2.65;;;;;;;16.92;27.29;99157.25;5025585;28;20037;-69
2021/04/25 13:51:40;;;;;;;8.95;3.58;;;;;;;16.62;27.46;99149.63;5025702;28;20037;-69
2021/04/25 13:54:06;;;;;;;3.95;2.78;;;;;;;16.73;27.62;99145.78;5025494;28;20513;-69
2021/04/25 13:56:32;;;;;;;3.80;2.65;;;;;;;16.06;27.37;99147.25;5025522;28;20034;-73
2021/04/25 13:58:58;;;;;;;6.55;3.05;;;;;;;16.79;26.11;99137.72;5025414;28;20490;-72
2021/04/25 14:01:24;;;;;;;8.90;2.92;;;;;;;16.65;26.75;99131.19;5025074;28;20036;-71
2021/04/25 14:03:49;;;;;;;5.40;2.67;;;;;;;16.75;26.17;99141.34;5025273;28;20025;-69
2021/04/25 14:06:15;;;;;;;5.15;2.33;;;;;;;17.54;25.05;99132.16;5025125;28;20033;-69
2021/04/25 14:08:41;;;;;;;5.47;2.55;;;;;;;17.21;25.38;99136.09;5025301;28;20771;-69
2021/04/25 14:11:09;;;;;;;4.18;2.58;;;;;;;17.24;24.30;99131.63;5024858;28;20052;-69
2021/04/25 14:13:34;;;;;;;5.63;2.42;;;;;;;17.24;25.60;99137.72;5024877;28;20036;-69
2021/04/25 14:16:00;;;;;;;6.80;2.45;;;;;;;17.47;25.61;99136.81;5025083;28;20033;-69
2021/04/25 14:18:25;;;;;;;6.68;2.60;;;;;;;17.81;25.01;99130.22;5024938;28;20094;-69
2021/04/25 14:20:51;;;;;;;5.53;2.03;;;;;;;17.87;25.72;99135.19;5025034;28;20551;-69
2021/04/25 14:23:16;;;;;;;6.47;2.40;;;;;;;17.67;24.56;99144.69;5025146;28;20453;-69
2021/04/25 14:25:43;;;;;;;7.93;4.07;;;;;;;17.71;25.70;99140.19;5024852;28;20079;-68
2021/04/25 14:28:08;;;;;;;6.63;2.67;;;;;;;16.93;25.93;99141.53;5024881;28;20045;-68
2021/04/25 14:30:36;;;;;;;4.65;2.50;;;;;;;16.92;26.26;99138.94;5024688;28;20087;-69
2021/04/25 14:33:01;;;;;;;4.20;2.35;;;;;;;17.13;26.30;99137.28;5024483;28;20033;-72
2021/04/25 14:35:28;;;;;;;3.75;2.38;;;;;;;17.31;25.21;99135.69;5024970;28;20025;-72
2021/04/25 14:37:55;;;;;;;6.63;3.33;;;;;;;16.61;25.29;99140.06;5024511;28;20025;-72
2021/04/25 14:40:22;;;;;;;7.20;2.85;;;;;;;17.34;25.21;99136.44;5024783;28;20037;-72
2021/04/25 14:42:48;;;;;;;4.47;2.70;;;;;;;17.05;24.33;99129.72;5024525;28;20029;-72
2021/04/25 14:45:18;;;;;;;4.47;2.45;;;;;;;16.95;25.03;99128.38;5024359;28;20508;-72
2021/04/25 14:47:49;;;;;;;5.53;2.33;;;;;;;17.18;24.61;99122.25;5024457;28;20981;-72
2021/04/25 14:50:16;;;;;;;3.60;2.17;;;;;;;17.08;25.46;99129.59;5024461;28;20036;-72
2021/04/25 14:52:42;;;;;;;4.00;2.03;;;;;;;17.56;24.97;99115.47;5024347;28;20064;-72
2021/04/25 14:55:09;;;;;;;4.43;2.55;;;;;;;17.64;24.16;99113.38;5024182;28;20119;-72
2021/04/25 14:57:36;;;;;;;4.70;2.35;;;;;;;16.70;24.70;99118.78;5024035;28;20029;-72
2021/04/25 15:00:04;;;;;;;3.88;1.85;;;;;;;17.57;24.30;99108.47;5023995;28;20119;-72
2021/04/25 15:02:29;;;;;;;3.47;2.08;;;;;;;17.31;23.82;99115.63;5024174;28;20041;-72
2021/04/25 15:04:56;;;;;;;4.22;2.40;;;;;;;17.20;23.99;99113.41;5023681;28;20025;-72
2021/04/25 15:07:21;;;;;;;4.45;2.25;;;;;;;17.39;23.97;99107.44;5024101;28;20111;-72
2021/04/25 15:09:46;;;;;;;7.88;2.25;;;;;;;17.71;24.16;99109.59;5023963;28;20029;-72
2021/04/25 15:12:12;;;;;;;6.43;2.58;;;;;;;17.50;24.41;99105.22;5024022;28;20034;-72
2021/04/25 15:14:37;;;;;;;8.73;2.92;;;;;;;17.54;24.20;99106.81;5023553;28;20051;-72
2021/04/25 15:17:02;;;;;;;5.45;2.28;;;;;;;17.49;24.66;99100.91;5023357;28;20033;-72
2021/04/25 15:19:28;;;;;;;4.85;2.90;;;;;;;17.36;24.74;99103.19;5023936;28;20453;-72
2021/04/25 15:21:54;;;;;;;5.45;3.25;;;;;;;17.24;24.42;99097.56;5023594;28;20751;-72
2021/04/25 15:24:21;;;;;;;3.90;2.25;;;;;;;17.37;24.63;99093.56;5023863;28;20037;-72
2021/04/25 15:26:46;;;;;;;4.43;2.50;;;;;;;17.34;24.78;99101.53;5023677;28;20021;-72
2021/04/25 15:29:11;;;;;;;5.78;2.00;;;;;;;17.02;24.54;99103.66;5023698;28;20040;-71
2021/04/25 15:31:37;;;;;;;4.75;2.47;;;;;;;17.45;24.78;99091.47;5023445;28;21455;-72
2021/04/25 15:34:02;;;;;;;5.32;2.55;;;;;;;17.35;24.28;99111.09;5023527;28;20504;-73
2021/04/25 15:36:27;;;;;;;5.90;3.45;;;;;;;17.42;25.11;99107.31;5023718;28;20538;-72
2021/04/25 15:38:53;;;;;;;4.15;2.75;;;;;;;17.66;24.49;99105.47;5023707;28;20474;-73
2021/04/25 15:41:18;;;;;;;6.05;3.03;;;;;;;17.12;25.24;99105.00;5023340;28;20111;-68
2021/04/25 15:43:43;;;;;;;6.38;2.83;;;;;;;16.76;25.89;99114.28;5023245;28;20030;-70
2021/04/25 15:46:09;;;;;;;4.53;2.40;;;;;;;17.21;25.17;99109.00;5023391;28;20473;-73
2021/04/25 15:48:34;;;;;;;7.65;2.47;;;;;;;16.55;25.19;99108.91;5023354;28;20461;-71
2021/04/25 15:51:00;;;;;;;5.43;2.70;;;;;;;16.45;25.72;99107.53;5023172;28;20025;-71
2021/04/25 15:53:25;;;;;;;4.22;2.53;;;;;;;16.48;25.69;99102.16;5023298;28;20036;-71
2021/04/25 15:55:51;;;;;;;6.65;2.70;;;;;;;16.90;24.39;99096.28;5023386;28;21029;-71
2021/04/25 15:58:17;;;;;;;5.28;2.60;;;;;;;16.26;25.07;99101.28;5023169;28;20033;-69
2021/04/25 16:00:44;;;;;;;6.47;3.15;;;;;;;16.02;25.56;99098.59;5022968;28;20025;-69
2021/04/25 16:03:11;;;;;;;10.57;6.03;;;;;;;16.63;25.67;99100.75;5023021;28;20033;-68
2021/04/25 16:05:37;;;;;;;3.17;2.42;;;;;;;16.69;24.86;99101.41;5004758;28;20063;-69
2021/04/25 16:08:04;;;;;;;4.20;2.58;;;;;;;17.00;24.13;99095.00;5023045;28;20116;-69
2021/04/25 16:10:30;;;;;;;4.38;2.05;;;;;;;17.05;24.22;99098.28;5022962;28;20036;-67
2021/04/25 16:12:56;;;;;;;3.97;2.30;;;;;;;16.72;23.51;99094.34;5022866;28;20390;-67
2021/04/25 16:15:22;;;;;;;12.98;2.83;;;;;;;16.24;24.36;99108.28;5023386;28;20540;-67
2021/04/25 16:17:48;;;;;;;4.20;1.98;;;;;;;16.05;23.70;99108.97;5022853;28;20024;-69
2021/04/25 16:20:14;;;;;;;5.60;2.45;;;;;;;15.79;24.45;99106.38;5022843;28;20041;-71
2021/04/25 16:22:40;;;;;;;2.92;2.17;;;;;;;16.27;23.73;99097.75;5023184;28;20025;-69
2021/04/25 16:25:09;;;;;;;3.45;2.00;;;;;;;16.34;24.23;99094.84;5023158;28;21338;-69
2021/04/25 16:27:34;;;;;;;4.63;2.28;;;;;;;16.36;24.27;99087.78;5022870;28;20426;-70
2021/04/25 16:30:00;;;;;;;7.35;2.72;;;;;;;16.09;24.66;99094.00;5025929;28;20025;-70
2021/04/25 16:32:25;;;;;;;5.63;2.80;;;;;;;16.27;23.32;99098.59;5026789;28;20502;-70
2021/04/25 16:34:50;;;;;;;4.40;2.58;;;;;;;16.31;22.95;99094.09;5026952;28;20026;-70
2021/04/25 16:37:17;;;;;;;6.47;2.28;;;;;;;16.14;23.78;99095.53;5026676;28;20151;-70
2021/04/25 16:39:43;;;;;;;4.85;2.30;;;;;;;16.22;23.26;99099.66;5026800;28;20462;-70
2021/04/25 16:42:09;;;;;;;4.90;2.40;;;;;;;15.91;24.18;99091.16;5026565;28;20029;-70
2021/04/25 16:44:35;;;;;;;3.20;2.40;;;;;;;16.18;24.29;99094.53;5026907;28;20120;-73
2021/04/25 16:47:01;;;;;;;4.70;2.58;;;;;;;16.26;24.25;99090.81;5026926;28;20059;-73
2021/04/25 16:49:28;;;;;;;5.45;2.67;;;;;;;16.16;23.79;99087.66;5026836;28;20494;-70
2021/04/25 16:51:54;;;;;;;6.32;2.30;;;;;;;16.26;24.37;99091.66;5026517;28;20116;-72
2021/04/25 16:54:20;;;;;;;4.18;2.38;;;;;;;16.34;24.28;99093.97;5026624;28;20033;-74
2021/04/25 16:56:45;;;;;;;5.45;2.20;;;;;;;15.85;25.88;99095.72;5026458;28;20033;-73
2021/04/25 16:59:16;;;;;;;4.05;2.30;;;;;;;15.71;25.38;99097.94;5026437;28;20079;-74
2021/04/25 17:01:41;;;;;;;2.45;2.25;;;;;;;15.64;25.84;99100.75;5007317;28;20029;-74
2021/04/25 17:04:07;;;;;;;7.20;2.65;;;;;;;15.38;27.12;99095.53;5026270;28;20025;-74
2021/04/25 17:06:33;;;;;;;4.47;2.38;;;;;;;15.08;27.81;99103.41;5026572;28;20029;-74
2021/04/25 17:08:59;;;;;;;7.63;4.00;;;;;;;15.06;27.20;99093.94;5026324;28;20025;-72
2021/04/25 17:11:24;;;;;;;5.00;2.20;;;;;;;15.16;27.13;99095.34;5026091;28;20039;-73
2021/04/25 17:13:49;;;;;;;6.30;3.10;;;;;;;15.57;26.54;99085.31;5025906;28;20039;-72
2021/04/25 17:16:15;;;;;;;8.05;2.80;;;;;;;15.52;25.70;99090.72;5026263;28;20029;-73
2021/04/25 17:18:40;;;;;;;5.85;3.00;;;;;;;15.38;26.23;99087.69;5006463;28;20470;-74
2021/04/25 17:21:06;;;;;;;7.93;2.67;;;;;;;15.25;26.28;99100.28;5026269;28;20073;-80
2021/04/25 17:23:32;;;;;;;6.32;2.63;;;;;;;15.25;27.10;99086.38;5025851;28;20065;-71
2021/04/25 17:25:57;;;;;;;3.85;2.40;;;;;;;15.07;25.94;99090.41;5025747;28;20526;-72
2021/04/25 17:28:23;;;;;;;6.88;2.58;;;;;;;14.84;26.28;99091.09;5025901;28;20026;-73
2021/04/25 17:30:48;;;;;;;3.78;2.53;;;;;;;14.88;27.18;99088.34;5025845;28;20033;-71
2021/04/25 17:33:14;;;;;;;6.53;2.72;;;;;;;14.72;27.41;99086.28;5026300;28;20029;-73
2021/04/25 17:35:39;;;;;;;6.25;2.42;;;;;;;14.61;27.38;99084.84;5026182;28;20033;-73
2021/04/25 17:38:05;;;;;;;3.85;2.15;;;;;;;14.58;27.18;99084.06;5026280;28;20032;-86
2021/04/25 17:40:31;;;;;;;4.80;2.78;;;;;;;14.51;26.70;99080.78;5025265;28;20033;-73
2021/04/25 17:42:57;;;;;;;4.57;2.47;;;;;;;14.32;28.14;99084.78;5025687;28;20053;-71
2021/04/25 17:45:23;;;;;;;4.65;2.58;;;;;;;14.22;27.38;99078.13;5025586;28;20071;-68
2021/04/25 17:47:54;;;;;;;5.15;3.15;;;;;;;14.24;28.07;99077.19;5025508;28;20067;-67
2021/04/25 17:50:24;;;;;;;3.83;2.90;;;;;;;14.06;28.10;99075.06;5025345;28;20029;-68
2021/04/25 17:52:49;;;;;;;5.53;2.90;;;;;;;14.03;28.42;99080.38;5025302;28;20030;-67
2021/04/25 17:55:15;;;;;;;6.43;2.72;;;;;;;13.95;27.63;99079.72;5025413;28;20478;-67
2021/04/25 17:57:40;;;;;;;4.20;2.65;;;;;;;13.84;28.37;99077.41;4990216;28;20029;-69
2021/04/25 18:00:10;;;;;;;3.35;2.15;;;;;;;13.73;27.98;99087.25;5025227;28;20029;-67
2021/04/25 18:02:35;;;;;;;4.28;2.50;;;;;;;13.65;28.21;99084.00;5025126;28;20030;-68
2021/04/25 18:05:00;;;;;;;5.13;2.88;;;;;;;13.63;28.63;99090.09;5025310;28;20044;-68
2021/04/25 18:07:27;;;;;;;6.55;3.40;;;;;;;13.46;29.38;99092.25;5025044;28;20030;-68
2021/04/25 18:09:54;;;;;;;6.80;2.50;;;;;;;13.40;28.76;99089.81;5025113;28;20651;-69
2021/04/25 18:12:19;;;;;;;5.30;2.70;;;;;;;13.35;28.95;99089.94;5025044;28;20056;-68
2021/04/25 18:14:44;;;;;;;3.83;2.55;;;;;;;13.39;29.65;99080.28;5024336;28;20064;-69
2021/04/25 18:17:09;;;;;;;5.38;2.50;;;;;;;13.24;29.10;99091.06;5024872;28;20029;-69
2021/04/25 18:19:35;;;;;;;6.05;2.63;;;;;;;13.18;29.40;99091.19;5024590;28;20127;-69
2021/04/25 18:22:00;;;;;;;3.38;2.15;;;;;;;13.10;30.29;99094.81;5024559;28;20068;-68
2021/04/25 18:24:25;;;;;;;10.02;2.58;;;;;;;12.81;30.51;99092.00;5024749;28;20112;-69
2021/04/25 18:26:51;;;;;;;3.60;2.10;;;;;;;12.77;30.56;99095.59;5025000;28;20036;-69
2021/04/25 18:29:16;;;;;;;17.17;8.93;;;;;;;12.60;30.86;99094.19;5024731;28;20055;-69
2021/04/25 18:31:42;;;;;;;23.58;11.75;;;;;;;12.49;30.72;99096.16;5024578;28;20037;-69
2021/04/25 18:34:07;;;;;;;17.30;10.98;;;;;;;12.41;31.01;99098.03;5024687;28;20105;-69
2021/04/25 18:36:35;;;;;;;12.73;7.90;;;;;;;12.36;32.05;99099.88;5024474;28;20032;-69
2021/04/25 18:39:01;;;;;;;9.13;4.60;;;;;;;12.24;31.69;99100.13;5023811;28;20064;-72
2021/04/25 18:41:27;;;;;;;6.90;4.35;;;;;;;12.09;32.00;99096.09;5024370;28;20060;-71